Flight Track Log - Related Links

Times and Time Zones

All times are in EDT time to prevent confusion due to time zone crossing. See the SWA706 flight status page for this flight to view local times or setup timezone preferences in your user account.

Time Position Orientation Groundspeed Altitude Reporting Facility
EDT Latitude Longitude Course Direction KTS MPH feet Rate Location/Type
Sat 06:34:07 PM 45.5972 -122.6028 290° West 147 169 1,100  Level Seattle Center
Sat 06:34:49 PM 45.6078 -122.6447 290° West 177 204 2,300 2,000 Climbing Seattle Center
Sat 06:35:16 PM 45.6172 -122.6711 297° West 170 196 3,400 3,246 Climbing Seattle Center
Sat 06:35:50 PM 45.6353 -122.7169 299° West 223 257 5,600 3,800 Climbing Seattle Center
Sat 06:36:16 PM 45.6467 -122.7464 299° West 202 232 7,200 4,131 Climbing Seattle Center
Sat 06:36:51 PM 45.6250 -122.7950 238° Southwest 233 268 9,800 3,738 Climbing Seattle Center
Sat 06:37:17 PM 45.6050 -122.7978 186° South 238 274 11,000 2,552 Climbing Seattle Center
Sat 06:38:18 PM 45.5575 -122.7056 126° Southeast 301 346 13,500 2,876 Climbing Seattle Center
Sat 06:39:18 PM 45.5119 -122.5925 120° Southeast 327 376 16,800 3,025 Climbing Seattle Center
Sat 06:40:19 PM 45.4611 -122.4686 120° Southeast 356 410 19,600 2,852 Climbing Seattle Center
Sat 06:41:20 PM 45.4067 -122.3381 121° Southeast 377 434 22,600 2,876 Climbing Seattle Center
Sat 06:42:20 PM 45.3492 -122.2014 121° Southeast 399 459 25,400 2,430 Climbing Seattle Center
Sat 06:43:21 PM 45.2894 -122.0606 121° Southeast 412 474 27,500 1,967 Climbing Seattle Center
Sat 06:44:22 PM 45.2300 -121.8750 114° Southeast 450 518 29,400 1,736 Climbing Seattle Center
Sat 06:45:22 PM 45.1842 -121.7000 110° East 472 543 31,000 1,736 Climbing Seattle Center
Sat 06:46:23 PM 45.1381 -121.5211 110° East 483 556 32,900 1,672 Climbing Seattle Center
Sat 06:47:24 PM 45.0908 -121.3406 110° East 490 564 34,400 1,537 Climbing Seattle Center
Sat 06:48:24 PM 45.0431 -121.1575 110° East 496 571 36,000 1,488 Climbing Seattle Center
Sat 06:49:25 PM 44.9933 -120.9744 111° Southeast 500 575 37,400 1,426 Climbing Seattle Center
Sat 06:50:26 PM 44.9436 -120.7939 111° Southeast 497 572 38,900 793 Climbing Seattle Center
Sat 06:51:26 PM 44.8886 -120.6150 113° Southeast 499 574 39,000 50 Climbing Seattle Center
Sat 06:52:27 PM 44.8331 -120.4328 113° Southeast 507 583 39,000  Level Seattle Center
Sat 06:53:28 PM 44.7797 -120.2525 113° Southeast 507 583 39,000  Level Seattle Center
Sat 06:54:28 PM 44.7244 -120.0739 113° Southeast 507 583 39,000  Level Seattle Center
Sat 06:55:29 PM 44.6692 -119.8953 113° Southeast 508 585 39,000  Level Seattle Center
Sat 06:56:30 PM 44.6019 -119.6781 113° Southeast 511 588 39,000  Level Seattle Center
Sat 06:57:30 PM 44.5469 -119.4975 113° Southeast 508 585 39,000  Level Seattle Center
Sat 06:58:31 PM 44.4897 -119.3172 114° Southeast 508 585 39,000  Level Seattle Center
Sat 06:59:32 PM 44.4328 -119.1361 114° Southeast 511 588 39,000  Level Seattle Center
Sat 07:00:32 PM 44.3756 -118.9575 114° Southeast 506 582 39,000  Level Seattle Center
Sat 07:01:33 PM 44.3181 -118.7789 114° Southeast 508 585 39,000  Level Seattle Center
Sat 07:02:34 PM 44.2586 -118.5997 115° Southeast 509 586 39,000  Level Seattle Center
Sat 07:03:34 PM 44.2017 -118.4211 114° Southeast 508 585 39,000  Level Seattle Center
Sat 07:04:35 PM 44.1425 -118.2422 115° Southeast 509 586 39,000  Level Seattle Center
Sat 07:05:36 PM 44.0797 -118.0561 115° Southeast 509 586 39,000  Level Seattle Center
Sat 07:06:38 PM 44.0114 -117.8550 115° Southeast 511 588 39,000  Level Salt Lake Center
Sat 07:07:39 PM 43.9553 -117.6861 115° Southeast 505 581 39,000  Level Salt Lake Center
Sat 07:08:40 PM 43.8939 -117.5214 117° Southeast 504 580 39,000  Level Salt Lake Center
Sat 07:09:41 PM 43.8219 -117.3275 117° Southeast 506 582 39,000  Level Salt Lake Center
Sat 07:10:42 PM 43.7600 -117.1617 117° Southeast 508 585 39,000  Level Salt Lake Center
Sat 07:11:43 PM 43.6881 -116.9700 117° Southeast 506 582 39,000  Level Salt Lake Center
Sat 07:12:44 PM 43.6267 -116.8064 117° Southeast 504 580 39,000  Level Salt Lake Center
Sat 07:13:45 PM 43.5656 -116.6433 117° Southeast 503 579 39,000  Level Salt Lake Center
Sat 07:14:46 PM 43.4925 -116.4550 118° Southeast 501 577 39,000  Level Salt Lake Center
Sat 07:15:47 PM 43.4306 -116.2942 118° Southeast 496 571 39,000  Level Salt Lake Center
Sat 07:16:48 PM 43.3686 -116.1328 118° Southeast 499 574 39,000  Level Salt Lake Center
Sat 07:17:49 PM 43.2958 -115.9456 118° Southeast 500 575 39,000  Level Salt Lake Center
Sat 07:18:50 PM 43.2331 -115.7864 118° Southeast 497 572 39,000  Level Salt Lake Center
Sat 07:19:52 PM 43.1603 -115.6019 118° Southeast 492 566 39,000  Level Salt Lake Center
Sat 07:20:53 PM 43.0978 -115.4450 119° Southeast 492 566 39,000  Level Salt Lake Center
Sat 07:21:54 PM 43.0353 -115.2867 118° Southeast 493 567 39,000  Level Salt Lake Center
Sat 07:22:55 PM 42.9619 -115.1028 119° Southeast 495 570 39,000  Level Salt Lake Center
Sat 07:23:56 PM 42.8981 -114.9467 119° Southeast 492 566 39,000  Level Salt Lake Center
Sat 07:24:57 PM 42.8344 -114.7889 119° Southeast 495 570 39,000  Level Salt Lake Center
Sat 07:25:58 PM 42.7592 -114.6058 119° Southeast 497 572 39,000  Level Salt Lake Center
Sat 07:26:59 PM 42.6886 -114.4339 119° Southeast 497 572 39,000  Level Salt Lake Center
Sat 07:28:00 PM 42.6214 -114.2706 119° Southeast 497 572 39,000 -295 Level Salt Lake Center
Sat 07:29:01 PM 42.5553 -114.1086 119° Southeast 493 567 38,400 -1,279 Descending Salt Lake Center
Sat 07:30:02 PM 42.4892 -113.9511 120° Southeast 481 554 36,400 -2,262 Descending Salt Lake Center
Sat 07:31:03 PM 42.4219 -113.7936 120° Southeast 484 557 33,800 -2,459 Descending Salt Lake Center
Sat 07:32:04 PM 42.3569 -113.6411 120° Southeast 471 542 31,400 -2,293 Descending Salt Lake Center
Sat 07:33:06 PM 42.2944 -113.4958 120° Southeast 453 521 29,100 -1,171 Descending Salt Lake Center
Sat 07:34:07 PM 42.2131 -113.3753 132° Southeast 435 501 29,000 -197 Descending Salt Lake Center
Sat 07:35:08 PM 42.1261 -113.2597 135° Southeast 440 506 28,700 -1,574 Descending Salt Lake Center
Sat 07:36:09 PM 42.0406 -113.1461 135° Southeast 433 498 25,800 -2,803 Descending Salt Lake Center
Sat 07:37:10 PM 41.9414 -113.0175 136° Southeast 416 479 23,000 -2,557 Descending Salt Lake Center
Sat 07:38:11 PM 41.8611 -112.9133 136° Southeast 404 465 20,600 -1,902 Descending Salt Lake Center
Sat 07:39:13 PM 41.7850 -112.8158 136° Southeast 382 440 19,100 -1,512 Descending Salt Lake Center
Sat 07:40:14 PM 41.7131 -112.7228 136° Southeast 364 419 17,500 -1,033 Descending Salt Lake Center
Sat 07:41:15 PM 41.6381 -112.6289 137° Southeast 369 425 17,000 -246 Descending Salt Lake Center
Sat 07:42:16 PM 41.5642 -112.5311 135° Southeast 372 428 17,000 -197 Level Salt Lake Center
Sat 07:43:17 PM 41.4861 -112.4458 141° Southeast 363 418 16,600 -492 Descending Salt Lake Center
Sat 07:44:18 PM 41.3944 -112.3811 152° Southeast 373 429 16,000 -295 Descending Salt Lake Center
Sat 07:45:19 PM 41.3050 -112.3172 152° Southeast 367 422 16,000  Level Salt Lake Center
Sat 07:46:28 PM 41.1972 -112.2389 151° Southeast 362 417 16,000 -465 Level Salt Lake Center
Sat 07:47:28 PM 41.1108 -112.1714 150° Southeast 357 411 15,000 -1,736 Descending Salt Lake Center
Sat 07:48:29 PM 41.0086 -112.1319 164° South 358 412 12,500 -1,655 Descending Salt Lake Center
Sat 07:49:24 PM 40.9308 -112.1153 171° South 337 388 11,800 -776 Descending Salt Lake Center
Sat 07:50:25 PM 40.8439 -112.1025 174° South 317 365 11,000 -541 Descending Salt Lake Center
Sat 07:51:26 PM 40.7697 -112.0931 174° South 268 308 10,700 -492 Descending Salt Lake Center
Sat 07:52:27 PM 40.7008 -112.0856 175° South 250 288 10,000 -689 Descending Salt Lake Center
Sat 07:53:28 PM 40.6603 -112.0489 146° Southeast 191 220 9,300 -1,366 Descending Salt Lake Center
Sat 07:54:30 PM 40.6644 -111.9886 85° East 172 198 7,200 -1,854 Descending Salt Lake Center
Sat 07:55:31 PM 40.7114 -111.9875 North 141 162 5,500 -1,180 Descending Salt Lake Center
Sat 07:56:32 PM 40.7483 -111.9917 355° North 134 154 4,800 -689 Descending Salt Lake Center
Sat 07:57:33 PM 40.7853 -111.9961 355° North 134 154 4,100 -689 Descending Salt Lake Center
Sat 07:59:00 PM 40.7884 -111.9778 123° Southeast  Level Estimated

Login

Don't have an account? Register now (free) for customized features, flight alerts, and more!